Time;durP1;ratioP1;P1;durP2;ratioP2;P2;SDS_P1;SDS_P2;PMS_P1;PMS_P2;Temp;Humidity;BMP_temperature;BMP_pressure;BME280_temperature;BME280_humidity;BME280_pressure;Samples;Min_cycle;Max_cycle;Signal;HPM_P1;HPM_P2
2022/03/30 00:02:03;;;;;;;43.75;27.35;;;13.90;95.10;;;13.71;100.00;99334.31;4990014;28;20038;-78
2022/03/30 00:04:31;;;;;;;42.70;27.98;;;13.90;95.00;;;13.65;100.00;99332.03;4987780;28;20054;-77
2022/03/30 00:06:58;;;;;;;36.78;25.80;;;13.90;95.00;;;13.73;100.00;99336.91;4973362;28;20057;-78
2022/03/30 00:09:25;;;;;;;42.35;27.67;;;13.80;94.80;;;13.67;100.00;99330.16;4989952;28;20046;-77
2022/03/30 00:11:53;;;;;;;39.17;28.52;;;13.80;95.00;;;13.73;100.00;99337.75;4989580;28;20399;-78
2022/03/30 00:14:21;;;;;;;41.92;28.48;;;14.20;94.80;;;13.78;100.00;99332.22;4988938;28;20049;-77
2022/03/30 00:16:48;;;;;;;45.33;28.80;;;13.80;94.30;;;13.78;100.00;99331.38;4988078;28;20042;-78
2022/03/30 00:19:15;;;;;;;39.55;29.30;;;13.80;94.40;;;13.66;100.00;99330.22;4989387;28;20047;-77
2022/03/30 00:21:42;;;;;;;45.15;28.85;;;13.80;94.80;;;13.74;100.00;99328.03;4988497;28;20145;-78
2022/03/30 00:24:10;;;;;;;46.63;29.75;;;13.80;94.80;;;13.75;100.00;99327.97;4991104;28;20443;-78
2022/03/30 00:26:37;;;;;;;41.70;29.08;;;13.90;94.50;;;13.76;100.00;99331.44;4993577;28;20046;-79
2022/03/30 00:29:05;;;;;;;47.28;29.98;;;13.80;94.60;;;13.66;100.00;99330.22;4978130;28;20056;-78
2022/03/30 00:31:33;;;;;;;45.63;29.17;;;13.80;94.90;;;13.62;100.00;99329.56;4994764;28;20133;-78
2022/03/30 00:34:00;;;;;;;48.83;30.58;;;14.20;94.80;;;13.66;100.00;99336.38;4993727;28;20129;-80
2022/03/30 00:36:27;;;;;;;47.90;31.60;;;14.20;94.70;;;13.59;100.00;99325.28;4994287;28;20380;-79
2022/03/30 00:38:54;;;;;;;48.03;32.50;;;13.80;94.70;;;13.63;100.00;99328.63;4978184;28;20052;-80
2022/03/30 00:41:27;;;;;;;58.90;36.10;;;13.70;94.50;;;13.58;100.00;99325.34;4994379;28;20101;-78
2022/03/30 00:43:54;;;;;;;54.47;34.63;;;13.80;94.80;;;13.52;100.00;99331.84;4994160;28;20048;-77
2022/03/30 00:46:21;;;;;;;52.95;31.55;;;13.70;94.80;;;13.48;100.00;99330.28;4993849;28;20462;-76
2022/03/30 00:48:48;;;;;;;53.03;35.03;;;14.60;95.00;;;13.53;100.00;99324.75;4993092;28;20042;-77
2022/03/30 00:51:15;;;;;;;55.50;33.33;;;13.70;94.70;;;13.54;100.00;99326.44;5005993;28;20515;-78
2022/03/30 00:53:42;;;;;;;48.83;32.05;;;14.10;94.90;;;13.45;100.00;99331.31;5005122;28;20061;-80
2022/03/30 00:56:09;;;;;;;45.70;29.98;;;13.70;95.10;;;13.48;100.00;99330.28;4989964;28;20046;-77
2022/03/30 00:58:54;;;;;;;52.35;32.35;;;13.60;95.20;;;13.47;100.00;99325.91;5003761;28;20483;-78
2022/03/30 01:01:23;;;;;;;53.40;33.88;;;13.60;95.20;;;13.40;100.00;99329.81;5006123;28;20057;-77
2022/03/30 01:03:50;;;;;;;48.75;31.40;;;13.60;95.30;;;13.24;100.00;99329.72;4988217;28;20047;-79
2022/03/30 01:06:17;;;;;;;55.28;34.13;;;13.50;95.40;;;13.21;100.00;99329.91;4988867;28;20352;-79
2022/03/30 01:08:46;;;;;;;50.72;32.75;;;13.50;95.40;;;13.21;100.00;99330.75;5005337;28;20054;-78
2022/03/30 01:11:13;;;;;;;48.72;31.80;;;13.40;95.60;;;13.08;100.00;99324.41;5005904;28;20069;-78
2022/03/30 01:13:40;;;;;;;51.20;33.13;;;13.40;95.80;;;13.09;100.00;99324.31;5004978;28;20042;-77
2022/03/30 01:16:29;;;;;;;52.53;32.78;;;13.30;95.90;;;13.07;100.00;99320.06;4988755;28;20043;-77
2022/03/30 01:19:08;;;;;;;54.05;32.95;;;13.30;96.20;;;13.12;100.00;99320.66;4991077;28;20042;-77
2022/03/30 01:21:40;;;;;;;56.38;34.03;;;12.20;95.90;;;13.08;100.00;99314.69;5007029;28;20046;-78
2022/03/30 01:24:11;;;;;;;49.97;35.80;;;13.90;96.60;;;12.99;100.00;99312.53;5004856;28;20136;-78
2022/03/30 01:26:38;;;;;;;;;;;13.20;96.60;;;12.95;100.00;99303.03;4987341;28;20080;-79
2022/03/30 01:32:25;;;;;;;47.00;32.25;;;13.20;96.70;;;12.99;100.00;99300.16;4993927;28;19921;-78
2022/03/30 01:34:45;;;;;;;55.40;34.58;;;13.20;96.80;;;12.98;100.00;99287.06;4973776;28;20050;-78
2022/03/30 01:37:14;;;;;;;49.70;33.78;;;13.50;97.00;;;12.98;100.00;99287.06;4959334;28;20043;-77
2022/03/30 01:39:41;;;;;;;51.35;31.65;;;13.40;96.90;;;12.98;100.00;99276.50;4994291;28;20046;-77
2022/03/30 01:42:09;;;;;;;45.53;31.55;;;13.20;96.70;;;13.09;100.00;99282.06;4993476;28;20051;-78
2022/03/30 01:44:38;;;;;;;42.88;29.80;;;13.10;96.60;;;13.12;100.00;99266.06;4992809;28;20093;-77
2022/03/30 01:47:10;;;;;;;39.58;26.33;;;13.20;96.60;;;13.10;100.00;99269.72;4991420;28;20046;-77
2022/03/30 01:49:37;;;;;;;36.05;24.00;;;13.20;96.40;;;13.03;100.00;99262.13;4993240;28;20087;-78
2022/03/30 01:52:05;;;;;;;36.50;24.58;;;13.20;96.30;;;13.03;100.00;99253.34;4991753;28;20038;-77
2022/03/30 01:54:39;;;;;;;35.95;24.20;;;13.20;96.00;;;13.05;100.00;99246.19;4990567;28;20038;-77
2022/03/30 01:57:08;;;;;;;36.10;23.55;;;13.70;96.20;;;13.02;100.00;99241.06;4992414;28;20039;-77
2022/03/30 01:59:35;;;;;;;41.83;25.33;;;13.10;96.10;;;12.99;100.00;99231.50;4992678;28;20042;-77
2022/03/30 02:02:02;;;;;;;35.03;23.25;;;13.10;96.10;;;12.93;100.00;99225.69;5007133;28;20048;-77
2022/03/30 02:04:31;;;;;;;36.95;23.88;;;13.10;96.10;;;12.90;100.00;99217.00;4990124;28;20515;-77
2022/03/30 02:06:58;;;;;;;40.75;23.38;;;13.50;96.10;;;12.79;100.00;99218.50;4989907;28;20046;-76
2022/03/30 02:09:25;;;;;;;32.90;23.95;;;13.20;96.10;;;12.68;100.00;99211.16;4990858;28;20117;-78
2022/03/30 02:11:54;;;;;;;35.50;23.42;;;13.70;96.20;;;12.77;100.00;99208.88;4976627;28;20077;-77
2022/03/30 02:14:21;;;;;;;30.25;21.08;;;14.20;96.20;;;12.77;100.00;99194.81;4991891;28;20042;-77
2022/03/30 02:16:48;;;;;;;31.65;20.63;;;12.90;95.70;;;12.71;100.00;99201.25;4990004;28;20500;-76
2022/03/30 02:19:15;;;;;;;32.85;20.92;;;12.90;95.60;;;12.68;100.00;99198.78;4990017;28;20065;-77
2022/03/30 02:21:42;;;;;;;32.70;19.98;;;12.90;95.30;;;12.67;100.00;99197.09;4989041;28;20049;-77
2022/03/30 02:24:10;;;;;;;28.30;19.33;;;12.90;95.30;;;12.58;100.00;99190.50;4972116;28;20077;-78
2022/03/30 02:26:37;;;;;;;34.58;19.90;;;12.80;95.30;;;12.60;100.00;99193.06;4989824;28;20419;-76
2022/03/30 02:29:04;;;;;;;25.65;18.75;;;12.80;95.40;;;12.59;100.00;99183.44;4990233;28;20074;-77
2022/03/30 02:31:31;;;;;;;27.48;19.25;;;12.80;95.30;;;12.54;100.00;99178.41;4989649;28;20038;-76
2022/03/30 02:33:58;;;;;;;31.90;19.95;;;13.20;95.40;;;12.50;100.00;99173.34;4989088;28;20483;-77
2022/03/30 02:36:25;;;;;;;27.60;19.55;;;12.70;95.40;;;12.49;100.00;99175.16;4992034;28;20049;-78
2022/03/30 02:38:53;;;;;;;25.20;19.50;;;12.70;95.40;;;12.42;100.00;99169.34;4987788;28;20050;-76
2022/03/30 02:41:20;;;;;;;26.50;19.20;;;12.90;95.50;;;12.44;100.00;99162.19;4993210;28;20046;-78
2022/03/30 02:43:47;;;;;;;24.95;18.88;;;12.60;95.40;;;12.37;100.00;99160.78;4989894;28;20085;-77
2022/03/30 02:46:14;;;;;;;31.35;20.13;;;12.60;95.30;;;12.41;100.00;99167.63;4986987;28;20055;-77
2022/03/30 02:48:41;;;;;;;27.75;19.83;;;12.60;95.40;;;12.35;100.00;99157.38;4971037;28;20419;-77
2022/03/30 02:51:09;;;;;;;26.83;18.42;;;12.60;95.40;;;12.30;100.00;99151.50;4972030;28;20047;-78
2022/03/30 02:53:36;;;;;;;29.30;19.15;;;12.60;95.60;;;12.27;100.00;99149.00;4975117;28;20049;-78
2022/03/30 02:56:04;;;;;;;24.27;18.83;;;11.50;95.40;;;12.29;100.00;99144.50;4989446;28;20054;-78
2022/03/30 02:58:33;;;;;;;26.38;18.25;;;12.50;95.60;;;12.32;100.00;99147.00;4956915;28;20039;-78
2022/03/30 03:01:00;;;;;;;27.15;17.27;;;12.50;95.30;;;12.23;100.00;99148.31;4969591;28;20050;-78
2022/03/30 03:03:27;;;;;;;24.75;16.85;;;12.50;95.40;;;12.24;100.00;99150.00;4968642;28;20043;-77
2022/03/30 03:05:54;;;;;;;25.17;17.80;;;12.40;95.30;;;12.16;100.00;99145.13;4969379;28;20055;-77
2022/03/30 03:08:21;;;;;;;24.70;16.90;;;12.40;95.40;;;12.27;100.00;99146.38;4953574;28;20059;-78
2022/03/30 03:10:50;;;;;;;23.30;17.17;;;12.30;95.40;;;12.22;100.00;99151.00;4986227;28;20056;-77
2022/03/30 03:13:17;;;;;;;22.83;16.13;;;12.40;95.40;;;12.14;100.00;99144.34;4952938;28;20515;-77
2022/03/30 03:15:46;;;;;;;23.67;16.38;;;12.40;95.20;;;12.14;100.00;99141.72;4954558;28;20039;-79
2022/03/30 03:18:21;;;;;;;24.00;15.35;;;12.40;95.10;;;12.10;100.00;99144.56;4940180;28;20051;-77
2022/03/30 03:20:49;;;;;;;23.38;15.23;;;12.30;95.10;;;12.13;100.00;99144.41;4955331;28;20369;-77
2022/03/30 03:23:17;;;;;;;25.40;16.10;;;12.30;95.00;;;12.09;100.00;99148.97;4970428;28;20101;-80
2022/03/30 03:25:44;;;;;;;22.40;15.50;;;13.60;95.60;;;12.13;100.00;99149.69;4991690;28;20054;-78
2022/03/30 03:28:14;;;;;;;21.52;14.80;;;12.70;95.30;;;12.11;100.00;99147.16;4975783;28;20053;-77
2022/03/30 03:30:42;;;;;;;24.67;15.40;;;12.30;95.00;;;12.13;100.00;99141.78;4990698;28;20045;-76
2022/03/30 03:33:10;;;;;;;23.33;15.70;;;13.60;95.30;;;12.17;100.00;99141.56;4988479;28;20042;-77
2022/03/30 03:35:38;;;;;;;22.48;14.38;;;12.30;94.80;;;12.18;100.00;99139.78;4988812;28;20054;-78
2022/03/30 03:38:08;;;;;;;18.83;14.60;;;13.60;95.20;;;12.14;100.00;99136.44;4988689;28;20057;-76
2022/03/30 03:40:35;;;;;;;19.93;14.77;;;12.30;94.70;;;12.11;100.00;99136.59;4988684;28;20097;-78
2022/03/30 03:43:04;;;;;;;20.25;14.43;;;12.80;94.90;;;12.08;100.00;99136.72;4991312;28;20045;-76
2022/03/30 03:45:32;;;;;;;18.70;13.57;;;12.30;94.90;;;12.10;100.00;99134.03;4992590;28;20068;-78
2022/03/30 03:47:59;;;;;;;16.77;13.07;;;12.30;94.90;;;12.11;100.00;99130.47;4988431;28;20054;-77
2022/03/30 03:50:27;;;;;;;18.80;13.95;;;12.30;94.80;;;12.06;100.00;99138.59;4989949;28;20050;-77
2022/03/30 03:52:55;;;;;;;22.17;14.45;;;12.30;94.90;;;12.02;100.00;99145.81;4988867;28;20093;-78
2022/03/30 03:55:22;;;;;;;23.98;15.18;;;12.20;95.10;;;11.99;100.00;99148.56;4958394;28;20038;-77
2022/03/30 03:57:50;;;;;;;17.95;13.00;;;13.30;95.40;;;12.01;100.00;99151.13;4988225;28;20043;-77
2022/03/30 04:00:18;;;;;;;22.80;14.57;;;12.80;95.30;;;11.91;100.00;99150.72;4972056;28;20141;-76
2022/03/30 04:02:45;;;;;;;19.17;14.40;;;12.50;95.30;;;11.89;100.00;99166.59;4989068;28;20523;-77
2022/03/30 04:05:14;;;;;;;17.73;13.32;;;12.20;95.50;;;11.85;100.00;99170.34;4990588;28;20072;-76
2022/03/30 04:07:41;;;;;;;20.92;14.55;;;12.20;95.70;;;11.79;100.00;99160.09;4990435;28;20053;-76
2022/03/30 04:10:10;;;;;;;21.42;14.82;;;12.10;95.80;;;11.80;100.00;99161.81;4990234;28;20046;-77
2022/03/30 04:12:38;;;;;;;19.88;15.65;;;12.10;96.00;;;11.69;100.00;99169.38;4989480;28;20058;-77
2022/03/30 04:15:08;;;;;;;19.55;15.15;;;12.00;96.20;;;11.74;100.00;99167.34;4981460;28;20516;-78
2022/03/30 04:17:46;;;;;;;22.02;15.18;;;12.00;96.50;;;11.69;100.00;99162.28;4997257;28;20022;-78
2022/03/30 04:20:14;;;;;;;24.05;16.35;;;12.00;96.60;;;11.58;100.00;99168.09;5010883;28;20054;-77
2022/03/30 04:22:43;;;;;;;23.08;18.05;;;11.90;96.70;;;11.53;100.00;99162.19;4994821;28;20404;-76
2022/03/30 04:25:11;;;;;;;24.50;17.17;;;11.90;96.90;;;11.60;100.00;99162.75;4992044;28;20066;-78
2022/03/30 04:27:50;;;;;;;26.05;18.75;;;11.90;96.90;;;11.60;100.00;99165.41;4962903;28;20408;-76
2022/03/30 04:30:20;;;;;;;30.70;19.55;;;11.80;97.20;;;11.63;100.00;99166.09;4990127;28;20049;-76
2022/03/30 04:32:47;;;;;;;32.05;20.67;;;11.90;97.50;;;11.55;100.00;99170.00;4987993;28;20051;-76
2022/03/30 04:35:18;;;;;;;34.40;21.98;;;12.70;98.30;;;11.53;100.00;99162.19;4988435;28;20770;-78
2022/03/30 04:37:45;;;;;;;32.72;21.70;;;11.80;98.60;;;11.47;100.00;99163.34;4986349;28;20053;-77
2022/03/30 04:40:12;;;;;;;34.33;23.33;;;11.80;99.40;;;11.49;100.00;99169.38;4972123;28;20050;-77
2022/03/30 04:42:39;;;;;;;37.28;24.75;;;11.80;99.70;;;11.47;100.00;99163.34;4986652;28;20746;-79
2022/03/30 04:45:07;;;;;;;38.00;25.90;;;11.80;99.80;;;11.38;100.00;99162.91;4992116;28;20061;-79
2022/03/30 04:47:34;;;;;;;32.95;22.52;;;11.70;99.90;;;11.37;100.00;99154.16;4975522;28;20050;-78
2022/03/30 04:50:01;;;;;;;35.88;23.50;;;11.60;99.90;;;11.40;100.00;99154.03;4992602;28;20525;-78
2022/03/30 04:52:29;;;;;;;30.83;22.63;;;11.70;99.90;;;11.29;100.00;99151.03;4989178;28;20162;-78
2022/03/30 04:54:55;;;;;;;36.03;22.30;;;11.60;99.90;;;11.21;100.00;99146.13;4973556;28;20055;-77
2022/03/30 04:57:23;;;;;;;35.92;24.40;;;11.60;99.90;;;11.20;100.00;99144.41;4973661;28;20038;-78
2022/03/30 04:59:50;;;;;;;31.65;22.45;;;11.50;99.90;;;11.29;100.00;99145.75;4973412;28;20066;-78
2022/03/30 05:02:17;;;;;;;31.55;21.90;;;12.00;99.90;;;11.37;100.00;99140.97;5004633;28;20101;-79
2022/03/30 05:04:44;;;;;;;35.25;24.38;;;11.50;99.60;;;11.28;100.00;99142.25;4990077;28;20038;-78
2022/03/30 05:07:11;;;;;;;34.20;24.58;;;11.50;99.50;;;11.33;100.00;99145.56;4989144;28;20039;-77
2022/03/30 05:09:38;;;;;;;30.83;22.33;;;11.50;99.50;;;11.34;100.00;99141.13;4992327;28;20049;-77
2022/03/30 05:12:05;;;;;;;28.92;22.70;;;11.60;99.60;;;11.27;100.00;99147.63;4976975;28;20057;-79
2022/03/30 05:14:33;;;;;;;36.22;24.33;;;11.60;99.70;;;11.31;100.00;99149.19;4992902;28;20054;-77
2022/03/30 05:17:01;;;;;;;33.63;23.70;;;11.60;99.80;;;11.33;100.00;99147.31;4992855;28;20049;-79
2022/03/30 05:19:28;;;;;;;27.33;20.95;;;11.60;99.50;;;11.24;100.00;99135.44;4977589;28;20046;-76
2022/03/30 05:21:55;;;;;;;28.85;22.70;;;11.50;99.30;;;11.26;100.00;99140.66;4991778;28;20053;-77
2022/03/30 05:24:22;;;;;;;27.73;21.85;;;11.50;99.10;;;11.23;100.00;99136.38;4992113;28;20046;-78
2022/03/30 05:26:50;;;;;;;30.02;22.08;;;11.50;99.30;;;11.14;100.00;99131.50;5011419;28;20063;-79
2022/03/30 05:29:17;;;;;;;27.23;20.95;;;12.60;99.60;;;11.21;100.00;99143.50;4995978;28;20133;-80
2022/03/30 05:31:45;;;;;;;31.05;21.23;;;11.40;99.60;;;11.20;100.00;99141.78;4995400;28;20130;-78
2022/03/30 05:34:33;;;;;;;34.20;23.58;;;11.40;99.40;;;11.14;100.00;99137.66;4997189;28;20046;-78
2022/03/30 05:37:00;;;;;;;32.53;22.17;;;11.50;99.60;;;11.13;100.00;99135.94;4995695;28;20042;-79
2022/03/30 05:39:27;;;;;;;29.35;21.20;;;11.40;99.50;;;11.06;100.00;99131.88;4993754;28;20207;-80
2022/03/30 05:41:54;;;;;;;28.70;20.17;;;11.60;99.90;;;10.99;100.00;99141.81;4994715;28;20061;-77
2022/03/30 05:44:21;;;;;;;28.45;22.02;;;11.30;99.90;;;11.03;100.00;99134.66;4978562;28;20146;-77
2022/03/30 05:46:48;;;;;;;27.10;20.17;;;11.30;99.90;;;11.04;100.00;99137.22;4976832;28;20081;-77
2022/03/30 05:49:16;;;;;;;28.45;20.42;;;11.30;99.90;;;11.03;100.00;99138.16;4993180;28;20050;-80
2022/03/30 05:51:44;;;;;;;25.60;19.00;;;11.30;99.90;;;11.01;100.00;99134.75;4978150;28;20113;-78
2022/03/30 05:54:11;;;;;;;25.25;18.23;;;12.00;99.90;;;10.95;100.00;99131.53;4993643;28;20042;-79
2022/03/30 05:59:24;;;;;;;29.75;20.80;;;11.20;99.90;;;11.02;100.00;99130.31;4994803;28;20051;-80
2022/03/30 06:01:51;;;;;;;26.98;19.98;;;11.80;99.90;;;11.01;100.00;99128.59;4991858;28;20470;-77
2022/03/30 06:04:19;;;;;;;29.38;20.80;;;11.20;99.90;;;10.99;100.00;99128.66;4989408;28;20050;-76
2022/03/30 06:06:46;;;;;;;30.42;22.25;;;11.20;99.90;;;10.98;100.00;99124.31;4991312;28;20039;-76
2022/03/30 06:09:13;;;;;;;28.10;21.48;;;11.30;99.90;;;11.09;100.00;99130.88;4991475;28;20518;-77
2022/03/30 06:11:40;;;;;;;34.80;22.45;;;11.90;99.90;;;11.05;100.00;99132.78;4997367;28;20399;-79
2022/03/30 06:14:07;;;;;;;29.58;22.88;;;11.70;99.90;;;11.04;100.00;99134.59;4992579;28;20046;-78
2022/03/30 06:16:35;;;;;;;28.92;21.95;;;11.30;99.90;;;11.05;100.00;99140.69;4992179;28;20762;-79
2022/03/30 06:19:02;;;;;;;33.65;25.05;;;11.30;99.90;;;11.00;100.00;99135.63;4992706;28;20045;-79
2022/03/30 06:21:30;;;;;;;30.77;23.17;;;12.20;99.90;;;11.10;100.00;99135.22;4990507;28;20043;-77
2022/03/30 06:23:58;;;;;;;26.77;21.40;;;11.40;99.90;;;11.10;100.00;99140.47;4975701;28;20047;-79
2022/03/30 06:26:26;;;;;;;28.67;21.50;;;11.30;99.90;;;11.06;100.00;99132.75;4994315;28;20054;-78
2022/03/30 06:28:53;;;;;;;27.60;20.33;;;11.20;99.90;;;11.02;100.00;99138.22;4993901;28;20073;-79
2022/03/30 06:31:20;;;;;;;26.15;19.90;;;11.30;99.90;;;11.05;100.00;99125.75;4994860;28;20140;-79
2022/03/30 06:33:49;;;;;;;25.58;19.50;;;11.30;99.90;;;11.04;100.00;99131.09;4994462;28;20054;-80
2022/03/30 06:36:16;;;;;;;23.88;19.23;;;11.30;99.90;;;11.07;100.00;99142.34;4993882;28;20046;-77
2022/03/30 06:38:44;;;;;;;28.48;19.77;;;11.30;99.90;;;11.04;100.00;99137.22;4993798;28;20042;-80
2022/03/30 06:41:16;;;;;;;22.63;18.67;;;11.30;99.90;;;11.03;100.00;99134.66;4991848;28;20057;-78
2022/03/30 06:43:47;;;;;;;25.40;19.77;;;11.30;99.90;;;11.07;100.00;99141.47;4991165;28;20137;-80
2022/03/30 06:46:17;;;;;;;28.00;20.42;;;11.30;99.90;;;11.02;100.00;99141.72;4977256;28;20049;-78
2022/03/30 06:48:45;;;;;;;26.90;19.35;;;11.30;99.90;;;11.01;100.00;99132.09;4991731;28;20479;-79
2022/03/30 06:51:15;;;;;;;24.92;20.10;;;12.30;99.90;;;11.04;100.00;99136.34;4991296;28;20114;-79
2022/03/30 06:53:42;;;;;;;23.17;17.75;;;11.30;99.90;;;11.07;100.00;99142.34;4992524;28;20070;-79
2022/03/30 06:56:10;;;;;;;25.90;19.98;;;11.30;99.90;;;11.16;100.00;99140.19;4976676;28;20045;-79
2022/03/30 06:58:37;;;;;;;31.40;20.52;;;12.00;99.90;;;11.24;100.00;99140.72;4995035;28;20104;-79
2022/03/30 07:01:04;;;;;;;28.40;20.63;;;11.40;99.90;;;11.07;100.00;99141.47;4976937;28;20043;-79
2022/03/30 07:03:31;;;;;;;28.52;20.52;;;11.40;99.90;;;11.06;100.00;99137.13;4991088;28;20035;-77
2022/03/30 07:06:03;;;;;;;24.77;21.15;;;11.40;99.90;;;11.11;100.00;99135.16;4989566;28;20046;-77
2022/03/30 07:11:19;;;;;;;30.17;22.05;;;11.30;99.90;;;11.01;100.00;99128.59;4970885;28;20504;-79
2022/03/30 07:13:46;;;;;;;31.40;22.67;;;11.50;99.90;;;11.00;100.00;99125.09;4971381;28;20055;-78
2022/03/30 07:16:13;;;;;;;29.98;22.15;;;11.30;99.90;;;11.11;100.00;99123.75;4954243;28;20047;-78
2022/03/30 07:18:44;;;;;;;29.88;22.02;;;11.40;99.90;;;11.15;100.00;99127.97;4972940;28;20046;-79
2022/03/30 07:21:11;;;;;;;;;;;11.30;99.90;;;11.20;100.00;99125.97;4976369;28;20042;-79
2022/03/30 07:23:39;;;;;;;25.35;21.40;;;11.80;99.90;;;11.13;100.00;99121.91;4960208;28;20016;-79
2022/03/30 07:26:15;;;;;;;33.42;23.00;;;11.40;99.90;;;11.14;100.00;99115.72;5008024;28;20046;-80
2022/03/30 07:28:42;;;;;;;32.88;24.80;;;11.40;99.90;;;11.09;100.00;99125.63;5007792;28;20046;-78
2022/03/30 07:31:09;;;;;;;36.38;26.20;;;11.40;99.90;;;11.09;100.00;99121.22;4991116;28;20054;-79
2022/03/30 07:33:37;;;;;;;31.50;24.20;;;11.40;99.90;;;11.16;100.00;99112.09;4975852;28;20042;-79
2022/03/30 07:36:04;;;;;;;37.05;26.52;;;10.60;99.90;;;11.17;100.00;99115.59;4992314;28;20121;-77
2022/03/30 07:38:49;;;;;;;36.63;26.20;;;11.40;99.90;;;11.15;100.00;99117.44;4974910;28;20150;-77
2022/03/30 07:41:16;;;;;;;33.70;26.30;;;11.40;99.90;;;11.20;100.00;99123.34;4988655;28;20050;-78
2022/03/30 07:43:43;;;;;;;37.05;26.38;;;11.40;99.90;;;11.19;100.00;99122.47;4987029;28;20116;-79
2022/03/30 07:46:12;;;;;;;34.35;25.05;;;11.40;99.90;;;11.16;100.00;99119.13;4981665;28;20046;-78
2022/03/30 07:48:40;;;;;;;33.33;24.63;;;11.50;99.90;;;11.20;100.00;99123.34;4989398;28;20082;-78
2022/03/30 07:51:07;;;;;;;35.17;25.05;;;11.70;99.90;;;11.19;100.00;99116.38;4973936;28;20050;-77
2022/03/30 07:53:34;;;;;;;34.55;27.40;;;11.50;99.90;;;11.12;100.00;99121.06;4993994;28;20645;-78
2022/03/30 07:56:01;;;;;;;38.05;27.63;;;11.40;99.90;;;11.14;100.00;99126.25;4991144;28;20089;-79
2022/03/30 07:58:29;;;;;;;38.78;27.63;;;11.40;99.90;;;11.19;100.00;99121.66;4991529;28;20125;-77
2022/03/30 08:00:56;;;;;;;39.63;27.75;;;11.40;99.90;;;11.19;100.00;99126.91;4988778;28;20066;-79
2022/03/30 08:03:23;;;;;;;39.88;28.23;;;11.40;99.90;;;11.05;100.00;99119.63;4989670;28;20042;-79
2022/03/30 08:05:51;;;;;;;42.30;29.77;;;11.40;99.90;;;11.11;100.00;99124.63;4990355;28;20042;-78
2022/03/30 08:08:18;;;;;;;39.03;29.52;;;11.40;99.90;;;11.05;100.00;99125.75;4976198;28;20141;-79
2022/03/30 08:10:45;;;;;;;38.80;29.02;;;11.40;99.90;;;11.02;100.00;99130.31;4959354;28;20084;-81
2022/03/30 08:13:13;;;;;;;40.72;30.90;;;12.30;99.90;;;10.92;100.00;99128.09;4977323;28;20046;-80
2022/03/30 08:15:42;;;;;;;39.38;29.13;;;11.30;99.90;;;10.97;100.00;99129.69;4960815;28;20051;-78
2022/03/30 08:18:10;;;;;;;37.17;28.35;;;12.20;99.90;;;11.00;100.00;99140.91;4977285;28;20101;-78
2022/03/30 08:23:39;;;;;;;42.83;29.90;;;11.30;99.90;;;10.86;100.00;99140.69;4990089;28;20467;-77
2022/03/30 08:26:06;;;;;;;43.35;30.88;;;11.20;99.90;;;10.86;100.00;99144.16;4984862;28;20039;-77
2022/03/30 08:28:36;;;;;;;43.58;31.85;;;11.50;99.90;;;10.78;100.00;99136.59;4985704;28;20077;-77
2022/03/30 08:31:03;;;;;;;42.55;29.10;;;11.20;99.90;;;10.80;100.00;99138.31;4985276;28;20110;-77
2022/03/30 08:33:35;;;;;;;44.28;31.15;;;11.10;99.90;;;10.68;100.00;99137.94;4987910;28;20052;-84
2022/03/30 08:36:02;;;;;;;41.20;31.67;;;11.00;99.90;;;10.56;100.00;99120.94;4976350;28;20097;-81
2022/03/30 08:38:30;;;;;;;43.90;31.70;;;11.00;99.90;;;10.64;100.00;99124.09;4979678;28;20050;-83
2022/03/30 08:40:58;;;;;;;46.17;32.20;;;11.00;99.90;;;10.58;100.00;99126.13;4964090;28;20046;-83
2022/03/30 08:43:27;;;;;;;43.78;32.65;;;10.90;99.90;;;10.57;100.00;99130.53;4978582;28;20129;-81
2022/03/30 08:45:56;;;;;;;41.15;30.77;;;11.00;99.90;;;10.68;100.00;99130.03;4976324;28;20066;-82
2022/03/30 08:48:24;;;;;;;46.00;32.28;;;11.00;99.90;;;10.68;100.00;99129.19;4994518;28;20046;-82
2022/03/30 08:50:59;;;;;;;41.38;29.70;;;11.00;99.90;;;10.63;100.00;99132.91;4980467;28;20141;-78
2022/03/30 08:53:27;;;;;;;;;;;11.20;99.90;;;10.68;100.00;99131.84;4980076;28;20068;-80
2022/03/30 08:55:54;;;;;;;46.38;33.28;;;11.00;99.90;;;10.66;100.00;99131.06;4978305;28;19925;-79
2022/03/30 08:58:21;;;;;;;45.03;32.47;;;11.00;99.90;;;10.42;100.00;99134.69;4979691;28;20938;-80
2022/03/30 09:00:50;;;;;;;46.38;33.95;;;12.20;99.90;;;10.48;100.00;99142.28;4979288;28;20048;-80
2022/03/30 09:03:18;;;;;;;49.25;33.33;;;11.70;99.90;;;10.37;100.00;99126.09;4981199;28;20105;-80
2022/03/30 09:05:46;;;;;;;49.67;33.22;;;12.70;99.90;;;10.47;100.00;99135.34;4980923;28;20046;-81
2022/03/30 09:08:25;;;;;;;48.45;33.58;;;12.50;99.90;;;10.62;100.00;99128.56;4981230;28;20050;-81
2022/03/30 09:10:56;;;;;;;47.22;33.15;;;10.80;99.90;;;10.58;100.00;99126.13;4982205;28;20092;-79
2022/03/30 09:13:24;;;;;;;;;;;10.90;99.90;;;10.57;100.00;99127.88;4982440;28;20054;-80
2022/03/30 09:15:52;;;;;;;46.38;34.10;;;10.90;99.90;;;10.52;100.00;99127.25;4980927;28;20013;-80
2022/03/30 09:18:20;;;;;;;51.72;35.92;;;10.80;99.90;;;10.53;100.00;99135.97;4995784;28;20460;-79
2022/03/30 09:20:54;;;;;;;47.28;33.40;;;10.90;99.90;;;10.62;100.00;99138.22;4979507;28;20052;-80
2022/03/30 09:23:26;;;;;;;46.20;33.83;;;10.90;99.90;;;10.61;100.00;99134.75;4995842;28;20045;-79
2022/03/30 09:25:55;;;;;;;49.60;33.67;;;12.60;99.90;;;10.54;100.00;99129.81;4979303;28;20050;-80
2022/03/30 09:28:23;;;;;;;42.45;32.03;;;10.90;99.90;;;10.54;100.00;99130.66;4994352;28;20042;-79
2022/03/30 09:30:52;;;;;;;45.10;33.25;;;12.80;99.90;;;10.52;100.00;99129.88;4979339;28;20046;-79
2022/03/30 09:33:22;;;;;;;46.67;32.33;;;10.90;99.90;;;10.54;100.00;99125.41;4980416;28;20046;-78
2022/03/30 09:35:50;;;;;;;51.00;36.17;;;10.90;99.90;;;10.50;100.00;99132.56;4996037;28;20062;-79
2022/03/30 09:38:21;;;;;;;47.03;35.63;;;10.90;99.90;;;10.55;100.00;99121.84;4978098;28;20046;-80
2022/03/30 09:41:04;;;;;;;50.42;36.92;;;10.90;99.90;;;10.61;100.00;99129.50;4993649;28;20050;-79
2022/03/30 09:43:34;;;;;;;49.03;36.10;;;10.90;99.90;;;10.60;100.00;99127.75;4994496;28;20038;-79
2022/03/30 09:46:15;;;;;;;52.55;36.50;;;10.90;99.90;;;10.59;100.00;99125.22;4978417;28;20132;-80
2022/03/30 09:48:53;;;;;;;52.95;38.10;;;10.90;99.90;;;10.64;100.00;99120.59;4977245;28;20046;-79
2022/03/30 09:51:25;;;;;;;52.65;40.05;;;10.90;99.90;;;10.64;100.00;99113.56;4977374;28;20050;-79
2022/03/30 09:53:52;;;;;;;49.42;36.03;;;10.90;99.90;;;10.71;100.00;99122.03;4972624;28;20053;-79
2022/03/30 09:56:23;;;;;;;52.10;36.75;;;10.90;99.90;;;10.70;100.00;99122.97;4987775;28;20074;-79
2022/03/30 09:59:00;;;;;;;53.33;37.53;;;10.90;99.90;;;10.75;100.00;99120.09;5015337;28;20037;-79
2022/03/30 10:01:33;;;;;;;55.15;40.33;;;12.80;99.90;;;10.64;100.00;99134.59;5018460;28;20046;-80
2022/03/30 10:04:04;;;;;;;60.92;42.35;;;11.00;99.90;;;10.64;100.00;99123.22;5005039;28;20074;-80
2022/03/30 10:06:34;;;;;;;59.33;43.13;;;11.00;99.90;;;10.57;100.00;99124.41;5006765;28;20050;-80
2022/03/30 10:09:07;;;;;;;60.83;40.45;;;11.30;99.90;;;10.56;100.00;99120.09;5005096;28;20058;-78
2022/03/30 10:11:37;;;;;;;60.08;41.55;;;11.00;99.90;;;10.59;100.00;99123.41;5008340;28;20055;-79
2022/03/30 10:14:05;;;;;;;61.15;40.60;;;10.90;99.90;;;10.67;100.00;99123.06;5012275;28;20055;-83
2022/03/30 10:16:40;;;;;;;53.13;38.38;;;10.90;99.90;;;10.61;100.00;99124.22;4981249;28;20520;-82
2022/03/30 10:19:25;;;;;;;56.72;40.08;;;10.90;99.90;;;10.45;100.00;99118.78;5007231;28;20039;-82